createdAt,value
2023-04-18T00:01:12.487Z,12.62
2023-04-18T00:06:14.987Z,12.71
2023-04-18T00:11:17.464Z,12.75
2023-04-18T00:16:20.018Z,11.47
2023-04-18T00:21:22.718Z,11.80
2023-04-18T00:26:25.790Z,12.19
2023-04-18T00:31:28.399Z,12.47
2023-04-18T00:36:31.076Z,12.57
2023-04-18T00:41:33.664Z,12.65
2023-04-18T00:46:36.216Z,12.79
2023-04-18T00:51:39.580Z,12.88
2023-04-18T00:56:42.491Z,12.82
2023-04-18T01:01:45.301Z,12.78
2023-04-18T01:06:47.937Z,12.80
2023-04-18T01:11:50.487Z,12.69
2023-04-18T01:16:53.239Z,12.69
2023-04-18T01:21:55.779Z,12.69
2023-04-18T01:27:03.131Z,12.66
2023-04-18T01:32:06.418Z,12.67
2023-04-18T01:37:08.994Z,12.64
2023-04-18T01:42:11.553Z,12.75
2023-04-18T01:47:14.090Z,12.83
2023-04-18T01:52:17.383Z,12.75
2023-04-18T01:57:19.962Z,12.71
2023-04-18T02:02:22.852Z,12.71
2023-04-18T02:07:25.670Z,12.69
2023-04-18T02:12:28.139Z,12.80
2023-04-18T02:17:30.863Z,12.84
2023-04-18T02:22:33.585Z,12.79
2023-04-18T02:27:36.726Z,12.78
2023-04-18T02:32:39.323Z,12.87
2023-04-18T02:37:41.931Z,12.87
2023-04-18T02:42:44.788Z,12.82
2023-04-18T02:47:55.203Z,12.75
2023-04-18T02:52:58.392Z,12.74
2023-04-18T02:58:00.965Z,12.74
2023-04-18T03:03:03.850Z,12.72
2023-04-18T03:08:06.561Z,12.70
2023-04-18T03:13:09.071Z,12.67
2023-04-18T03:18:12.449Z,12.70
2023-04-18T03:23:14.986Z,12.70
2023-04-18T03:28:17.543Z,12.80
2023-04-18T03:33:20.088Z,12.91
2023-04-18T03:38:22.670Z,12.96
2023-04-18T03:43:25.357Z,12.85
2023-04-18T03:48:29.003Z,12.75
2023-04-18T03:53:31.694Z,12.75
2023-04-18T03:58:34.259Z,12.73
2023-04-18T04:03:37.158Z,12.80
2023-04-18T04:08:39.833Z,12.82
2023-04-18T04:13:42.374Z,12.89
2023-04-18T04:18:45.111Z,12.97
2023-04-18T04:23:48.000Z,13.05
2023-04-18T04:28:51.589Z,13.10
2023-04-18T04:33:54.148Z,13.17
2023-04-18T04:38:56.863Z,13.38
2023-04-18T04:44:01.841Z,13.56
2023-04-18T04:49:04.479Z,13.76
2023-04-18T04:54:07.109Z,13.88
2023-04-18T04:59:09.712Z,13.89
2023-04-18T05:04:12.891Z,13.81
2023-04-18T05:09:15.789Z,13.76
2023-04-18T05:14:18.706Z,13.85
2023-04-18T05:19:21.280Z,13.97
2023-04-18T05:24:23.883Z,14.04
2023-04-18T05:29:26.487Z,14.11
2023-04-18T05:34:29.144Z,14.09
2023-04-18T05:39:32.327Z,13.92
2023-04-18T05:44:34.918Z,12.33
2023-04-18T05:49:37.469Z,13.02
2023-04-18T05:54:40.152Z,13.95
2023-04-18T05:59:42.894Z,14.44
2023-04-18T06:04:46.187Z,13.70
2023-04-18T06:09:49.745Z,12.45
2023-04-18T06:14:52.365Z,13.59
2023-04-18T06:19:54.856Z,14.61
2023-04-18T06:24:57.497Z,14.11
2023-04-18T06:30:00.028Z,12.60
2023-04-18T06:35:02.706Z,13.56
2023-04-18T06:40:05.918Z,14.44
2023-04-18T06:45:10.722Z,14.10
2023-04-18T06:50:14.039Z,13.78
2023-04-18T06:55:16.603Z,14.97
2023-04-18T07:00:19.424Z,15.15
2023-04-18T07:05:22.054Z,13.76
2023-04-18T07:10:24.661Z,12.96
2023-04-18T07:15:27.198Z,13.80
2023-04-18T07:20:29.971Z,15.02
2023-04-18T07:25:32.556Z,13.92
2023-04-18T07:30:35.093Z,14.39
2023-04-18T07:35:37.699Z,14.87
2023-04-18T07:40:40.312Z,13.94
2023-04-18T07:45:43.287Z,13.51
2023-04-18T07:50:45.894Z,14.93
2023-04-18T07:55:48.981Z,16.02
2023-04-18T08:00:51.586Z,15.06
2023-04-18T08:05:54.089Z,14.49
2023-04-18T08:10:56.661Z,14.26
2023-04-18T08:16:00.114Z,14.22
2023-04-18T08:21:02.867Z,14.27
2023-04-18T08:26:05.424Z,14.30
2023-04-18T08:31:11.967Z,14.22
2023-04-18T08:36:14.531Z,14.42
2023-04-18T08:41:21.533Z,14.56
2023-04-18T08:46:24.153Z,14.52
2023-04-18T08:51:30.630Z,14.50
2023-04-18T08:56:33.167Z,14.45
2023-04-18T09:02:06.395Z,14.60
2023-04-18T09:07:10.851Z,14.85
2023-04-18T09:12:32.687Z,15.12
2023-04-18T09:17:45.492Z,15.43
2023-04-18T09:22:51.970Z,15.64
2023-04-18T09:27:57.230Z,15.74
2023-04-18T09:33:01.347Z,15.68
2023-04-18T09:38:04.848Z,15.73
2023-04-18T09:43:20.457Z,15.88
2023-04-18T09:48:23.031Z,15.91
2023-04-18T09:53:26.623Z,15.93
2023-04-18T09:58:32.866Z,16.13
2023-04-18T10:03:44.319Z,16.22
2023-04-18T10:08:49.027Z,16.26
2023-04-18T10:13:57.416Z,16.28
2023-04-18T10:19:29.496Z,16.39
2023-04-18T10:24:55.972Z,16.60
2023-04-18T10:29:58.603Z,16.82
2023-04-18T10:35:01.781Z,17.13
2023-04-18T10:40:07.315Z,17.53
2023-04-18T10:45:26.992Z,17.99
2023-04-18T10:50:29.713Z,18.00
2023-04-18T10:55:32.299Z,17.45
2023-04-18T11:00:35.267Z,16.99
2023-04-18T11:05:37.970Z,16.66
2023-04-18T11:10:41.116Z,16.54
2023-04-18T11:15:43.710Z,16.87
2023-04-18T11:20:51.188Z,17.37
2023-04-18T11:25:56.398Z,17.83
2023-04-18T11:31:00.246Z,18.44
2023-04-18T11:36:03.061Z,18.72
2023-04-18T11:41:05.744Z,18.48
2023-04-18T11:46:08.512Z,18.35
2023-04-18T11:51:35.565Z,18.46
2023-04-18T11:56:48.582Z,18.23
2023-04-18T12:02:08.851Z,17.93
2023-04-18T12:07:33.547Z,17.49
2023-04-18T12:12:36.548Z,17.42
2023-04-18T12:17:40.156Z,17.62
2023-04-18T12:22:45.650Z,17.93
2023-04-18T12:27:49.858Z,18.00
2023-04-18T12:32:59.916Z,17.79
2023-04-18T12:38:03.221Z,17.54
2023-04-18T12:43:05.901Z,17.36
2023-04-18T12:48:08.733Z,17.34
2023-04-18T12:53:11.309Z,17.49
2023-04-18T12:58:18.429Z,17.51
2023-04-18T13:03:21.623Z,17.50
2023-04-18T13:08:24.245Z,17.80
2023-04-18T13:13:26.766Z,18.21
2023-04-18T13:18:29.274Z,18.08
2023-04-18T13:23:31.886Z,17.54
2023-04-18T13:28:34.486Z,17.01
2023-04-18T13:33:37.088Z,16.63
2023-04-18T13:38:39.656Z,16.42
2023-04-18T13:43:42.278Z,16.30
2023-04-18T13:48:45.313Z,16.04
2023-04-18T13:53:47.862Z,15.66
2023-04-18T13:58:51.044Z,15.31
2023-04-18T14:03:54.768Z,15.10
2023-04-18T14:08:58.547Z,15.11
2023-04-18T14:14:01.975Z,15.10
2023-04-18T14:19:04.663Z,15.15
2023-04-18T14:24:08.148Z,15.27
2023-04-18T14:29:11.224Z,15.42
2023-04-18T14:34:13.864Z,15.56
2023-04-18T14:39:16.602Z,15.71
2023-04-18T14:44:19.211Z,15.59
2023-04-18T14:49:22.114Z,15.22
2023-04-18T14:54:24.784Z,14.71
2023-04-18T14:59:28.745Z,14.37
2023-04-18T15:04:31.434Z,14.19
2023-04-18T15:09:37.737Z,14.00
2023-04-18T15:14:40.823Z,13.78
2023-04-18T15:19:43.400Z,13.58
2023-04-18T15:24:47.413Z,13.40
2023-04-18T15:29:49.976Z,13.20
2023-04-18T15:34:52.578Z,13.02
2023-04-18T15:39:55.299Z,13.13
2023-04-18T15:44:58.068Z,14.74
2023-04-18T15:50:00.957Z,14.57
2023-04-18T15:55:05.124Z,13.86
2023-04-18T16:00:16.100Z,13.41
2023-04-18T16:05:18.994Z,13.15
2023-04-18T16:10:21.939Z,13.63
2023-04-18T16:15:24.538Z,14.51
2023-04-18T16:20:27.928Z,13.79
2023-04-18T16:25:30.686Z,13.33
2023-04-18T16:30:33.238Z,14.06
2023-04-18T16:35:35.780Z,14.78
2023-04-18T16:40:38.608Z,13.98
2023-04-18T16:45:41.404Z,13.52
2023-04-18T16:50:47.011Z,14.87
2023-04-18T16:55:50.412Z,15.05
2023-04-18T17:00:53.214Z,13.98
2023-04-18T17:05:56.015Z,14.06
2023-04-18T17:10:59.639Z,15.62
2023-04-18T17:16:02.417Z,14.96
2023-04-18T17:21:05.011Z,13.85
2023-04-18T17:26:08.946Z,13.82
2023-04-18T17:31:14.794Z,15.06
2023-04-18T17:36:17.615Z,14.02
2023-04-18T17:41:24.062Z,13.29
2023-04-18T17:46:26.866Z,14.55
2023-04-18T17:51:29.781Z,14.24
2023-04-18T17:56:32.478Z,13.11
2023-04-18T18:01:37.741Z,13.97
2023-04-18T18:06:42.215Z,13.98
2023-04-18T18:11:44.865Z,12.94
2023-04-18T18:16:47.429Z,14.04
2023-04-18T18:21:50.545Z,13.87
2023-04-18T18:26:53.323Z,12.67
2023-04-18T18:31:56.350Z,13.80
2023-04-18T18:36:58.981Z,13.43
2023-04-18T18:42:02.419Z,12.34
2023-04-18T18:47:05.791Z,13.41
2023-04-18T18:52:08.317Z,13.38
2023-04-18T18:57:12.086Z,12.10
2023-04-18T19:02:23.961Z,12.94
2023-04-18T19:07:28.875Z,13.10
2023-04-18T19:12:32.611Z,11.75
2023-04-18T19:17:35.769Z,11.67
2023-04-18T19:22:39.136Z,13.15
2023-04-18T19:27:42.413Z,13.04
2023-04-18T19:32:45.835Z,11.41
2023-04-18T19:37:48.648Z,11.66
2023-04-18T19:42:51.255Z,13.06
2023-04-18T19:47:53.915Z,11.99
2023-04-18T19:52:56.559Z,10.72
2023-04-18T19:58:00.024Z,11.57
2023-04-18T20:03:02.898Z,11.13
2023-04-18T20:08:06.023Z,9.87
2023-04-18T20:13:08.761Z,9.11
2023-04-18T20:18:11.686Z,8.65
2023-04-18T20:23:14.513Z,10.00
2023-04-18T20:28:17.188Z,11.27
2023-04-18T20:33:19.823Z,9.81
2023-04-18T20:38:26.176Z,9.92
2023-04-18T20:43:28.914Z,10.75
2023-04-18T20:48:31.468Z,9.24
2023-04-18T20:53:34.108Z,9.03
2023-04-18T20:58:36.684Z,10.68
2023-04-18T21:03:39.321Z,10.77
2023-04-18T21:08:42.067Z,9.08
2023-04-18T21:13:44.654Z,9.03
2023-04-18T21:18:47.196Z,10.48
2023-04-18T21:23:49.755Z,9.29
2023-04-18T21:28:57.841Z,8.31
2023-04-18T21:34:02.759Z,9.62
2023-04-18T21:39:05.541Z,9.21
2023-04-18T21:44:08.152Z,8.77
2023-04-18T21:49:10.738Z,10.24
2023-04-18T21:54:13.779Z,9.25
2023-04-18T21:59:19.504Z,8.76
2023-04-18T22:04:26.126Z,10.02
2023-04-18T22:09:29.669Z,8.59
2023-04-18T22:14:32.319Z,7.96
2023-04-18T22:19:35.619Z,9.50
2023-04-18T22:24:38.198Z,9.97
2023-04-18T22:29:40.919Z,8.28
2023-04-18T22:34:44.735Z,8.33
2023-04-18T22:39:47.294Z,9.81
2023-04-18T22:44:49.892Z,9.27
2023-04-18T22:49:56.435Z,8.01
2023-04-18T22:54:58.943Z,9.21
2023-04-18T23:00:01.552Z,9.64
2023-04-18T23:05:05.812Z,7.99
2023-04-18T23:10:09.195Z,8.85
2023-04-18T23:15:11.981Z,9.31
2023-04-18T23:20:14.675Z,8.26
2023-04-18T23:25:17.586Z,9.46
2023-04-18T23:30:20.168Z,9.91
2023-04-18T23:35:22.666Z,8.30
2023-04-18T23:40:25.364Z,8.18
2023-04-18T23:45:31.040Z,9.51
2023-04-18T23:50:35.432Z,9.27
2023-04-18T23:55:37.986Z,7.81
